createdAt,value
2019-04-27T00:02:40.041Z,9.03
2019-04-27T00:05:34.860Z,8.13
2019-04-27T00:08:13.944Z,8.55
2019-04-27T00:10:55.537Z,9.40
2019-04-27T00:13:27.721Z,9.50
2019-04-27T00:16:24.372Z,9.48
2019-04-27T00:19:15.124Z,10.50
2019-04-27T00:22:05.038Z,10.35
2019-04-27T00:24:37.123Z,10.68
2019-04-27T00:27:09.282Z,11.40
2019-04-27T00:29:42.816Z,9.05
2019-04-27T00:32:14.936Z,9.90
2019-04-27T00:34:47.083Z,10.32
2019-04-27T00:37:36.713Z,9.03
2019-04-27T00:40:18.033Z,8.75
2019-04-27T00:42:49.896Z,8.48
2019-04-27T00:45:23.440Z,7.25
2019-04-27T00:47:59.459Z,8.03
2019-04-27T00:50:29.194Z,8.20
2019-04-27T00:53:03.424Z,7.58
2019-04-27T00:55:37.445Z,7.10
2019-04-27T00:58:17.386Z,7.17
2019-04-27T01:01:10.153Z,8.45
2019-04-27T01:04:00.926Z,8.08
2019-04-27T01:06:33.620Z,7.65
2019-04-27T01:09:09.500Z,8.13
2019-04-27T01:11:43.428Z,7.92
2019-04-27T01:14:15.626Z,6.87
2019-04-27T01:16:49.225Z,7.25
2019-04-27T01:19:21.309Z,7.25
2019-04-27T01:21:53.350Z,6.50
2019-04-27T01:24:25.436Z,5.33
2019-04-27T01:27:34.298Z,5.37
2019-04-27T01:30:11.837Z,5.28
2019-04-27T01:32:44.017Z,6.33
2019-04-27T01:37:48.672Z,5.87
2019-04-27T01:40:20.697Z,5.42
2019-04-27T01:42:52.588Z,4.75
2019-04-27T01:45:24.617Z,5.17
2019-04-27T01:47:59.429Z,5.65
2019-04-27T01:50:31.227Z,5.47
2019-04-27T01:53:03.308Z,5.30
2019-04-27T01:58:06.096Z,5.87
2019-04-27T02:01:02.308Z,5.62
2019-04-27T02:03:51.858Z,5.58
2019-04-27T02:06:24.969Z,5.30
2019-04-27T02:08:56.869Z,5.70
2019-04-27T02:14:00.608Z,4.62
2019-04-27T02:16:32.538Z,4.72
2019-04-27T02:19:04.639Z,4.83
2019-04-27T02:24:09.755Z,5.15
2019-04-27T02:26:41.631Z,4.78
2019-04-27T02:29:41.458Z,5.58
2019-04-27T02:32:40.490Z,5.28
2019-04-27T02:35:15.210Z,5.22
2019-04-27T02:37:47.244Z,6.53
2019-04-27T02:40:42.392Z,5.37
2019-04-27T02:43:14.880Z,5.47
2019-04-27T02:45:50.153Z,5.53
2019-04-27T02:48:21.670Z,5.58
2019-04-27T02:50:56.490Z,6.22
2019-04-27T02:53:45.974Z,6.83
2019-04-27T02:56:20.261Z,6.67
2019-04-27T02:58:51.870Z,6.12
2019-04-27T03:01:26.304Z,7.35
2019-04-27T03:04:00.223Z,6.40
2019-04-27T03:06:32.290Z,5.47
2019-04-27T03:09:04.811Z,5.67
2019-04-27T03:11:39.548Z,5.85
2019-04-27T03:14:35.288Z,5.53
2019-04-27T03:17:32.800Z,5.87
2019-04-27T03:20:30.728Z,5.78
2019-04-27T03:23:05.130Z,4.87
2019-04-27T03:25:54.808Z,5.20
2019-04-27T03:28:29.655Z,4.90
2019-04-27T03:31:02.368Z,5.65
2019-04-27T03:33:35.480Z,5.72
2019-04-27T03:36:12.474Z,5.47
2019-04-27T03:38:42.181Z,6.05
2019-04-27T03:43:45.206Z,5.28
2019-04-27T03:46:20.219Z,5.60
2019-04-27T03:48:51.739Z,5.72
2019-04-27T03:51:32.769Z,5.65
2019-04-27T03:54:26.518Z,5.15
2019-04-27T03:57:05.718Z,5.10
2019-04-27T03:59:55.309Z,5.58
2019-04-27T04:02:29.922Z,5.42
2019-04-27T04:05:01.222Z,5.92
2019-04-27T04:10:04.618Z,4.33
2019-04-27T04:12:50.091Z,4.58
2019-04-27T04:15:39.820Z,5.03
2019-04-27T04:18:12.523Z,5.45
2019-04-27T04:20:44.538Z,5.42
2019-04-27T04:23:16.650Z,3.90
2019-04-27T04:25:49.883Z,4.47
2019-04-27T04:28:22.098Z,5.62
2019-04-27T04:30:54.162Z,5.55
2019-04-27T04:33:26.203Z,5.00
2019-04-27T04:35:59.732Z,5.60
2019-04-27T04:38:32.041Z,4.85
2019-04-27T04:41:09.453Z,4.95
2019-04-27T04:43:48.963Z,5.28
2019-04-27T04:46:39.937Z,4.72
2019-04-27T04:49:12.081Z,4.60
2019-04-27T04:51:44.031Z,4.90
2019-04-27T04:56:49.323Z,5.85
2019-04-27T04:59:21.067Z,5.05
2019-04-27T05:01:53.078Z,4.45
2019-04-27T05:04:25.477Z,3.42
2019-04-27T05:06:59.035Z,4.00
2019-04-27T05:09:31.978Z,4.22
2019-04-27T05:14:34.838Z,3.92
2019-04-27T05:17:06.958Z,4.80
2019-04-27T05:19:39.047Z,5.10
2019-04-27T05:22:10.937Z,4.70
2019-04-27T05:24:42.918Z,4.45
2019-04-27T05:27:14.958Z,4.58
2019-04-27T05:29:47.057Z,4.30
2019-04-27T05:32:20.719Z,4.05
2019-04-27T05:34:52.927Z,4.97
2019-04-27T05:37:28.228Z,4.12
2019-04-27T05:39:58.972Z,4.20
2019-04-27T05:42:32.017Z,5.55
2019-04-27T05:45:24.193Z,4.60
2019-04-27T05:48:00.857Z,4.87
2019-04-27T05:50:38.087Z,4.22
2019-04-27T05:53:06.640Z,4.70
2019-04-27T05:55:39.298Z,4.17
2019-04-27T05:58:11.417Z,4.67
2019-04-27T06:00:44.228Z,5.45
2019-04-27T06:03:16.247Z,4.83
2019-04-27T06:05:49.408Z,5.03
2019-04-27T06:08:21.376Z,4.05
2019-04-27T06:10:53.337Z,4.08
2019-04-27T06:15:56.206Z,4.67
2019-04-27T06:18:29.475Z,4.90
2019-04-27T06:21:01.726Z,4.53
2019-04-27T06:23:33.727Z,4.35
2019-04-27T06:26:05.827Z,4.67
2019-04-27T06:31:09.538Z,4.20
2019-04-27T06:33:41.527Z,5.15
2019-04-27T06:38:44.786Z,4.30
2019-04-27T06:43:49.411Z,4.55
2019-04-27T06:46:21.632Z,4.42
2019-04-27T06:48:53.666Z,4.70
2019-04-27T06:51:25.775Z,5.42
2019-04-27T06:53:59.407Z,5.33
2019-04-27T06:56:31.616Z,4.87
2019-04-27T06:59:03.726Z,5.33
2019-04-27T07:04:08.861Z,5.20
2019-04-27T07:06:52.757Z,5.15
2019-04-27T07:09:14.626Z,5.40
2019-04-27T07:11:46.917Z,5.20
2019-04-27T07:19:22.665Z,5.75
2019-04-27T07:21:54.817Z,5.50
2019-04-27T07:26:59.358Z,6.62
2019-04-27T07:29:31.614Z,6.60
2019-04-27T07:32:03.556Z,6.05
2019-04-27T07:34:35.936Z,6.03
2019-04-27T07:37:09.354Z,6.90
2019-04-27T07:39:42.805Z,7.20
2019-04-27T07:42:14.887Z,8.33
2019-04-27T07:47:26.917Z,8.18
2019-04-27T07:49:59.253Z,8.95
2019-04-27T07:52:34.064Z,8.00
2019-04-27T07:57:36.936Z,9.15
2019-04-27T08:00:11.127Z,8.78
2019-04-27T08:02:43.176Z,8.48
2019-04-27T08:07:46.044Z,9.60
2019-04-27T08:10:19.352Z,8.30
2019-04-27T08:12:51.546Z,8.90
2019-04-27T08:15:23.646Z,8.70
2019-04-27T08:20:26.546Z,10.00
2019-04-27T08:22:59.676Z,8.83
2019-04-27T08:25:32.615Z,8.88
2019-04-27T08:31:15.894Z,10.28
2019-04-27T08:33:48.676Z,9.60
2019-04-27T08:36:20.866Z,9.03
2019-04-27T08:41:23.937Z,8.95
2019-04-27T08:43:55.992Z,10.28
2019-04-27T08:46:28.877Z,9.65
2019-04-27T08:49:01.007Z,9.73
2019-04-27T08:51:32.977Z,9.78
2019-04-27T08:54:04.976Z,9.55
2019-04-27T08:56:36.906Z,9.78
2019-04-27T08:59:09.538Z,8.98
2019-04-27T09:01:41.606Z,9.35
2019-04-27T09:04:13.788Z,8.48
2019-04-27T09:09:46.476Z,8.98
2019-04-27T09:12:36.396Z,8.23
2019-04-27T09:15:17.166Z,9.28
2019-04-27T09:17:52.067Z,8.23
2019-04-27T09:20:30.696Z,9.28
2019-04-27T09:23:02.667Z,8.48
2019-04-27T09:25:34.756Z,9.00
2019-04-27T09:30:39.255Z,8.05
2019-04-27T09:33:11.528Z,9.50
2019-04-27T09:35:43.705Z,8.85
2019-04-27T09:38:16.749Z,8.13
2019-04-27T09:40:49.746Z,9.65
2019-04-27T09:43:22.027Z,8.35
2019-04-27T09:45:55.799Z,8.50
2019-04-27T09:48:28.057Z,7.47
2019-04-27T09:51:00.136Z,7.85
2019-04-27T09:53:32.036Z,8.30
2019-04-27T09:56:05.796Z,8.25
2019-04-27T09:58:38.246Z,7.40
2019-04-27T10:01:10.387Z,7.78
2019-04-27T10:06:13.317Z,8.45
2019-04-27T10:11:17.007Z,9.10
2019-04-27T10:13:49.175Z,18.35
2019-04-27T10:16:21.146Z,9.38
2019-04-27T10:21:24.006Z,9.00
2019-04-27T10:23:57.072Z,8.38
2019-04-27T10:26:29.216Z,8.10
2019-04-27T10:31:31.921Z,8.13
2019-04-27T10:34:03.907Z,8.20
2019-04-27T10:36:41.796Z,9.03
2019-04-27T10:39:14.606Z,8.08
2019-04-27T10:41:46.639Z,8.38
2019-04-27T10:44:18.816Z,9.65
2019-04-27T10:46:50.816Z,8.45
2019-04-27T10:49:22.806Z,8.05
2019-04-27T10:51:55.771Z,9.05
2019-04-27T10:54:29.326Z,8.48
2019-04-27T10:57:01.319Z,9.60
2019-04-27T10:59:33.227Z,9.98
2019-04-27T11:02:05.667Z,9.13
2019-04-27T11:04:50.066Z,9.00
2019-04-27T11:07:25.937Z,8.48
2019-04-27T11:09:58.066Z,8.83
2019-04-27T11:12:30.427Z,9.00
2019-04-27T11:15:02.367Z,9.38
2019-04-27T11:17:34.389Z,11.78
2019-04-27T11:20:07.447Z,9.55
2019-04-27T11:22:39.729Z,9.10
2019-04-27T11:27:42.880Z,9.13
2019-04-27T11:30:16.847Z,9.08
2019-04-27T11:32:48.836Z,8.95
2019-04-27T11:35:43.546Z,9.03
2019-04-27T11:38:16.765Z,8.40
2019-04-27T11:40:48.939Z,8.93
2019-04-27T11:43:21.077Z,9.68
2019-04-27T11:45:53.455Z,10.48
2019-04-27T11:48:26.246Z,8.53
2019-04-27T11:50:58.366Z,8.83
2019-04-27T11:53:30.286Z,8.15
2019-04-27T11:56:02.267Z,8.65
2019-04-27T12:01:08.434Z,8.55
2019-04-27T12:03:40.550Z,9.65
2019-04-27T12:08:43.537Z,9.25
2019-04-27T12:11:16.061Z,9.23
2019-04-27T12:13:48.228Z,8.90
2019-04-27T12:16:20.279Z,9.18
2019-04-27T12:18:52.396Z,8.63
2019-04-27T12:23:55.122Z,10.85
2019-04-27T12:26:49.543Z,10.35
2019-04-27T12:29:23.906Z,11.80
2019-04-27T12:31:56.277Z,11.80
2019-04-27T12:34:28.311Z,11.18
2019-04-27T12:37:00.238Z,12.50
2019-04-27T12:39:32.201Z,12.37
2019-04-27T12:42:06.011Z,12.43
2019-04-27T12:44:42.327Z,12.93
2019-04-27T12:47:12.196Z,13.13
2019-04-27T12:52:15.906Z,14.68
2019-04-27T12:54:54.197Z,15.75
2019-04-27T12:57:44.099Z,14.05
2019-04-27T13:00:23.477Z,14.73
2019-04-27T13:02:55.915Z,14.25
2019-04-27T13:05:29.236Z,15.78
2019-04-27T13:08:02.326Z,14.65
2019-04-27T13:10:34.456Z,13.58
2019-04-27T13:15:38.187Z,14.10
2019-04-27T13:18:10.256Z,12.70
2019-04-27T13:23:13.139Z,11.65
2019-04-27T13:25:46.067Z,10.25
2019-04-27T13:28:19.230Z,9.85
2019-04-27T13:33:22.355Z,9.60
2019-04-27T13:35:54.424Z,9.95
2019-04-27T13:38:26.799Z,10.32
2019-04-27T13:41:08.926Z,9.28
2019-04-27T13:43:41.276Z,9.80
2019-04-27T13:46:30.751Z,9.53
2019-04-27T13:49:40.427Z,9.05
2019-04-27T13:52:16.596Z,9.80
2019-04-27T13:54:48.736Z,8.60
2019-04-27T13:59:51.790Z,9.50
2019-04-27T14:02:26.610Z,9.30
2019-04-27T14:04:58.378Z,8.90
2019-04-27T14:07:30.306Z,9.15
2019-04-27T14:10:02.367Z,9.35
2019-04-27T14:12:35.380Z,8.73
2019-04-27T14:17:39.974Z,9.35
2019-04-27T14:20:12.326Z,8.70
2019-04-27T14:22:44.796Z,8.90
2019-04-27T14:25:18.157Z,9.60
2019-04-27T14:27:50.264Z,10.13
2019-04-27T14:32:53.386Z,9.93
2019-04-27T14:35:25.585Z,10.32
2019-04-27T14:40:30.106Z,10.65
2019-04-27T14:43:02.187Z,11.20
2019-04-27T14:45:34.139Z,47.98
2019-04-27T14:48:08.108Z,47.95
2019-04-27T14:50:40.492Z,36.23
2019-04-27T14:53:12.626Z,20.27
2019-04-27T14:55:44.736Z,16.77
2019-04-27T14:58:19.168Z,26.05
2019-04-27T15:00:50.918Z,28.32
2019-04-27T15:03:23.926Z,18.52
2019-04-27T15:05:56.095Z,17.67
2019-04-27T15:10:59.126Z,18.98
2019-04-27T15:16:02.638Z,17.40
2019-04-27T15:18:43.517Z,17.42
2019-04-27T15:21:13.556Z,18.07
2019-04-27T15:26:20.283Z,16.73
2019-04-27T15:28:52.288Z,13.15
2019-04-27T15:31:34.665Z,13.25
2019-04-27T15:34:17.867Z,14.87
2019-04-27T15:37:12.078Z,15.43
2019-04-27T15:40:08.574Z,11.75
2019-04-27T15:42:51.750Z,12.35
2019-04-27T15:45:24.197Z,13.05
2019-04-27T15:47:54.762Z,13.93
2019-04-27T15:50:28.517Z,13.05
2019-04-27T15:53:02.835Z,11.30
2019-04-27T15:55:38.931Z,12.55
2019-04-27T15:58:10.166Z,16.57
2019-04-27T16:00:42.177Z,16.85
2019-04-27T16:03:18.112Z,15.20
2019-04-27T16:05:50.814Z,14.83
2019-04-27T16:08:22.780Z,13.00
2019-04-27T16:10:54.726Z,12.63
2019-04-27T16:13:32.585Z,11.35
2019-04-27T16:16:00.487Z,14.30
2019-04-27T16:18:32.745Z,13.10
2019-04-27T16:21:07.052Z,16.23
2019-04-27T16:23:42.867Z,20.55
2019-04-27T16:26:14.852Z,14.38
2019-04-27T16:28:49.798Z,11.63
2019-04-27T16:31:20.601Z,11.05
2019-04-27T16:33:58.492Z,13.40
2019-04-27T16:36:28.859Z,12.05
2019-04-27T16:39:03.616Z,12.55
2019-04-27T16:41:38.899Z,13.48
2019-04-27T16:44:11.830Z,11.90
2019-04-27T16:46:44.106Z,11.53
2019-04-27T16:49:16.171Z,10.85
2019-04-27T16:51:49.248Z,11.45
2019-04-27T16:54:22.547Z,10.45
2019-04-27T16:57:04.582Z,11.12
2019-04-27T16:59:44.228Z,12.78
2019-04-27T17:02:03.936Z,11.25
2019-04-27T17:04:35.877Z,12.18
2019-04-27T17:07:08.700Z,10.23
2019-04-27T17:09:46.126Z,10.88
2019-04-27T17:12:15.491Z,10.35
2019-04-27T17:14:54.746Z,10.60
2019-04-27T17:17:42.759Z,11.75
2019-04-27T17:20:19.637Z,11.00
2019-04-27T17:22:50.242Z,12.18
2019-04-27T17:25:23.227Z,10.78
2019-04-27T17:28:04.040Z,12.10
2019-04-27T17:30:39.812Z,10.72
2019-04-27T17:33:38.085Z,10.30
2019-04-27T17:36:16.381Z,10.45
2019-04-27T17:38:49.177Z,10.50
2019-04-27T17:41:20.077Z,9.80
2019-04-27T17:43:52.016Z,10.70
2019-04-27T17:46:25.767Z,12.47
2019-04-27T17:49:08.458Z,10.72
2019-04-27T17:51:44.351Z,10.35
2019-04-27T17:54:15.865Z,10.55
2019-04-27T17:59:20.971Z,10.28
2019-04-27T18:01:53.942Z,9.63
2019-04-27T18:04:28.687Z,10.23
2019-04-27T18:07:03.316Z,10.60
2019-04-27T18:09:40.370Z,10.80
2019-04-27T18:12:14.591Z,10.88
2019-04-27T18:14:42.546Z,11.28
2019-04-27T18:17:14.603Z,10.38
2019-04-27T18:19:53.496Z,10.60
2019-04-27T18:22:28.186Z,9.88
2019-04-27T18:25:06.591Z,9.40
2019-04-27T18:27:52.277Z,10.43
2019-04-27T18:30:38.119Z,9.73
2019-04-27T18:33:08.041Z,10.32
2019-04-27T18:35:40.146Z,10.25
2019-04-27T18:38:12.286Z,11.45
2019-04-27T18:40:44.376Z,9.60
2019-04-27T18:45:48.598Z,10.60
2019-04-27T18:48:58.452Z,10.40
2019-04-27T18:52:04.134Z,9.98
2019-04-27T18:54:38.203Z,9.43
2019-04-27T18:57:10.870Z,10.05
2019-04-27T18:59:41.326Z,10.93
2019-04-27T19:02:13.286Z,10.03
2019-04-27T19:04:45.296Z,9.68
2019-04-27T19:07:17.266Z,10.08
2019-04-27T19:12:21.568Z,9.33
2019-04-27T19:17:25.066Z,10.80
2019-04-27T19:19:57.117Z,10.53
2019-04-27T19:22:30.002Z,9.58
2019-04-27T19:25:02.186Z,9.13
2019-04-27T19:30:31.767Z,9.78
2019-04-27T19:33:03.906Z,10.18
2019-04-27T19:35:44.308Z,10.38
2019-04-27T19:38:18.619Z,10.45
2019-04-27T19:40:50.887Z,10.00
2019-04-27T19:43:22.897Z,10.28
2019-04-27T19:45:55.137Z,9.83
2019-04-27T19:48:28.658Z,9.68
2019-04-27T19:51:00.767Z,10.90
2019-04-27T19:53:32.727Z,10.28
2019-04-27T19:58:42.946Z,10.63
2019-04-27T20:01:22.077Z,11.25
2019-04-27T20:03:59.801Z,11.50
2019-04-27T20:06:31.913Z,11.00
2019-04-27T20:14:18.041Z,11.35
2019-04-27T20:19:21.576Z,11.38
2019-04-27T20:21:53.746Z,11.38
2019-04-27T20:24:25.876Z,10.58
2019-04-27T20:29:28.556Z,11.63
2019-04-27T20:32:01.215Z,9.70
2019-04-27T20:34:33.342Z,10.75
2019-04-27T20:37:05.646Z,10.05
2019-04-27T20:42:08.537Z,11.03
2019-04-27T20:47:13.278Z,10.82
2019-04-27T20:52:23.086Z,9.60
2019-04-27T20:54:55.126Z,9.35
2019-04-27T20:57:27.166Z,10.48
2019-04-27T20:59:59.247Z,9.88
2019-04-27T21:02:43.199Z,10.70
2019-04-27T21:05:46.626Z,10.30
2019-04-27T21:08:20.872Z,9.85
2019-04-27T21:10:52.970Z,11.43
2019-04-27T21:15:55.717Z,11.25
2019-04-27T21:18:27.775Z,11.35
2019-04-27T21:21:01.392Z,10.95
2019-04-27T21:23:33.306Z,11.65
2019-04-27T21:26:06.767Z,11.55
2019-04-27T21:28:38.875Z,12.43
2019-04-27T21:31:12.687Z,11.40
2019-04-27T21:33:44.666Z,11.80
2019-04-27T21:36:16.670Z,11.90
2019-04-27T21:41:20.917Z,12.30
2019-04-27T21:43:53.296Z,12.23
2019-04-27T21:46:25.268Z,12.90
2019-04-27T21:48:57.176Z,12.95
2019-04-27T21:51:29.606Z,12.40
2019-04-27T21:54:17.071Z,13.18
2019-04-27T21:56:49.146Z,13.38
2019-04-27T21:59:21.135Z,11.63
2019-04-27T22:01:55.437Z,11.88
2019-04-27T22:04:27.394Z,11.80
2019-04-27T22:07:01.416Z,11.65
2019-04-27T22:09:33.646Z,12.65
2019-04-27T22:12:05.976Z,13.45
2019-04-27T22:14:38.924Z,11.80
2019-04-27T22:17:11.122Z,11.85
2019-04-27T22:22:24.827Z,11.70
2019-04-27T22:25:05.896Z,12.05
2019-04-27T22:27:37.946Z,12.00
2019-04-27T22:30:10.993Z,12.63
2019-04-27T22:32:43.066Z,12.45
2019-04-27T22:35:15.207Z,12.45
2019-04-27T22:40:37.146Z,11.28
2019-04-27T22:43:34.306Z,12.65
2019-04-27T22:46:07.891Z,12.40
2019-04-27T22:48:41.567Z,12.37
2019-04-27T22:51:14.585Z,11.43
2019-04-27T22:53:46.706Z,12.40
2019-04-27T22:56:22.253Z,12.63
2019-04-27T22:59:07.463Z,11.97
2019-04-27T23:02:01.575Z,11.25
2019-04-27T23:04:37.665Z,11.40
2019-04-27T23:07:11.076Z,11.85
2019-04-27T23:09:44.336Z,10.60
2019-04-27T23:12:16.827Z,10.50
2019-04-27T23:14:48.996Z,10.90
2019-04-27T23:17:55.107Z,11.33
2019-04-27T23:20:27.518Z,11.12
2019-04-27T23:23:01.286Z,10.85
2019-04-27T23:25:33.238Z,11.97
2019-04-27T23:28:05.367Z,10.28
2019-04-27T23:30:44.949Z,11.35
2019-04-27T23:33:16.996Z,11.65
2019-04-27T23:35:49.016Z,11.48
2019-04-27T23:38:21.130Z,11.83
2019-04-27T23:40:53.086Z,11.40
2019-04-27T23:43:25.047Z,11.38
2019-04-27T23:45:58.366Z,12.50
2019-04-27T23:48:32.141Z,10.90
2019-04-27T23:51:25.798Z,11.45
2019-04-27T23:53:57.967Z,11.88
2019-04-27T23:59:01.826Z,10.97
